Fort Smith Regional Airport
KFSM : now visible

Airfield :











YOU CAN JOIN US ON...

 
LOGIN :

Register | Disclaimer

   EN    FR    IT 

 









Legend :    VFR   Marginal VFR   IFR   Intensive IFR   Very Intensive IFR
Visi :
Ceiling :
>= 8 km
>= 3000ft
5 to 8 km
1000 to 3000 ft
1500m to 5 km
500 to 1000 ft
800 to 1500m
200 to 500 ft
< 800m
< 200 ft
Symbols :   Thunderstorms  Fog  Heavy snow  Heavy precipitations  Wind > 20 kt






- Airport Elevation : 469 ft
- IATA code : FSM


KFSM - Fort Smith Regional

CURRENT METAR :
  • 080453Z AUTO 09004KT 10SM CLR 26/22 A2993 RMK AO2 SLP129 T02560217

EXPIRED METARs :
  • 080353Z AUTO 00000KT 10SM CLR 26/23 A2993 RMK AO2 SLP129 T02610233
  • 080253Z 12003KT 10SM CLR 28/23 A2991 RMK AO2 SLP123 T02780233 53009

TAF KFSM
Valid from the 08 at 00:00 until the 09 at 00:00 UTC


072320Z 0800/0824 15006KT P6SM SKC
FM081000 07003KT 4SM BR FEW004 SCT012
TEMPO 0810/0814 2SM BR BKN004
FM081500 09005KT P6SM SCT025
FM081700 12004KT P6SM SCT035
KZME FIR / North America



MET'MAP, your aeronautical weather chart ! - Copyright ORBIFLY December 2007 - Disclaimer

ORBIFLY MET'MAP TEAM :

Programming & Development : Alexandra Zaïnal
Concept & original design : Baudouin d'Aumeries
Assistance for programming : Marc-Olivier Méhu
Technical & hardware support : Manuel Goepfert

Contact : metmap@orbifly.com




SOURCES & CREDITS :

   NOAA       Earth
Advisory